sensor_id;sensor_type;location;lat;lon;timestamp;P1;durP1;ratioP1;P2;durP2;ratioP2
18206;SDS011;9229;52.354;20.886;2023-04-01T00:01:52;29.50;;;16.90;;
18206;SDS011;9229;52.354;20.886;2023-04-01T00:06:54;34.70;;;17.65;;
18206;SDS011;9229;52.354;20.886;2023-04-01T00:11:58;31.88;;;17.52;;
18206;SDS011;9229;52.354;20.886;2023-04-01T00:17:00;37.40;;;18.35;;
18206;SDS011;9229;52.354;20.886;2023-04-01T00:22:02;33.53;;;16.95;;
18206;SDS011;9229;52.354;20.886;2023-04-01T00:27:06;29.90;;;16.55;;
18206;SDS011;9229;52.354;20.886;2023-04-01T00:32:08;33.88;;;17.20;;
18206;SDS011;9229;52.354;20.886;2023-04-01T00:37:10;32.78;;;17.00;;
18206;SDS011;9229;52.354;20.886;2023-04-01T00:42:14;33.35;;;16.50;;
18206;SDS011;9229;52.354;20.886;2023-04-01T00:47:18;36.50;;;18.65;;
18206;SDS011;9229;52.354;20.886;2023-04-01T00:52:22;34.85;;;17.38;;
18206;SDS011;9229;52.354;20.886;2023-04-01T00:57:29;37.78;;;18.67;;
18206;SDS011;9229;52.354;20.886;2023-04-01T01:02:37;40.35;;;18.33;;
18206;SDS011;9229;52.354;20.886;2023-04-01T01:07:43;43.03;;;17.35;;
18206;SDS011;9229;52.354;20.886;2023-04-01T01:12:51;40.85;;;17.83;;
18206;SDS011;9229;52.354;20.886;2023-04-01T01:18:01;38.60;;;17.33;;
18206;SDS011;9229;52.354;20.886;2023-04-01T01:23:17;39.45;;;19.92;;
18206;SDS011;9229;52.354;20.886;2023-04-01T01:28:41;37.28;;;18.95;;
18206;SDS011;9229;52.354;20.886;2023-04-01T01:33:58;36.35;;;18.33;;
18206;SDS011;9229;52.354;20.886;2023-04-01T01:39:14;37.17;;;18.48;;
18206;SDS011;9229;52.354;20.886;2023-04-01T01:44:19;37.42;;;18.50;;
18206;SDS011;9229;52.354;20.886;2023-04-01T01:49:22;43.65;;;20.05;;
18206;SDS011;9229;52.354;20.886;2023-04-01T01:54:27;41.42;;;20.58;;
18206;SDS011;9229;52.354;20.886;2023-04-01T01:59:30;42.33;;;20.40;;
18206;SDS011;9229;52.354;20.886;2023-04-01T02:04:34;41.00;;;19.58;;
18206;SDS011;9229;52.354;20.886;2023-04-01T02:09:40;34.30;;;18.15;;
18206;SDS011;9229;52.354;20.886;2023-04-01T02:14:45;35.65;;;18.15;;
18206;SDS011;9229;52.354;20.886;2023-04-01T02:19:53;33.35;;;18.23;;
18206;SDS011;9229;52.354;20.886;2023-04-01T02:25:01;38.38;;;18.52;;
18206;SDS011;9229;52.354;20.886;2023-04-01T02:30:08;40.10;;;19.55;;
18206;SDS011;9229;52.354;20.886;2023-04-01T02:35:11;41.92;;;19.60;;
18206;SDS011;9229;52.354;20.886;2023-04-01T02:40:18;52.92;;;22.42;;
18206;SDS011;9229;52.354;20.886;2023-04-01T02:45:22;55.90;;;22.60;;
18206;SDS011;9229;52.354;20.886;2023-04-01T02:50:25;53.22;;;22.42;;
18206;SDS011;9229;52.354;20.886;2023-04-01T02:55:29;41.65;;;21.02;;
18206;SDS011;9229;52.354;20.886;2023-04-01T03:00:31;49.50;;;21.15;;
18206;SDS011;9229;52.354;20.886;2023-04-01T03:05:33;40.63;;;20.52;;
18206;SDS011;9229;52.354;20.886;2023-04-01T03:10:37;46.00;;;22.38;;
18206;SDS011;9229;52.354;20.886;2023-04-01T03:15:39;51.72;;;22.75;;
18206;SDS011;9229;52.354;20.886;2023-04-01T03:20:41;48.97;;;23.55;;
18206;SDS011;9229;52.354;20.886;2023-04-01T03:25:45;48.05;;;23.48;;
18206;SDS011;9229;52.354;20.886;2023-04-01T03:30:49;46.10;;;21.88;;
18206;SDS011;9229;52.354;20.886;2023-04-01T03:35:54;39.78;;;20.85;;
18206;SDS011;9229;52.354;20.886;2023-04-01T03:40:58;46.40;;;21.50;;
18206;SDS011;9229;52.354;20.886;2023-04-01T03:46:00;47.28;;;20.10;;
18206;SDS011;9229;52.354;20.886;2023-04-01T03:51:06;45.05;;;21.80;;
18206;SDS011;9229;52.354;20.886;2023-04-01T03:56:10;46.47;;;21.63;;
18206;SDS011;9229;52.354;20.886;2023-04-01T04:01:13;56.60;;;25.00;;
18206;SDS011;9229;52.354;20.886;2023-04-01T04:06:17;53.13;;;24.05;;
18206;SDS011;9229;52.354;20.886;2023-04-01T04:11:22;50.67;;;23.63;;
18206;SDS011;9229;52.354;20.886;2023-04-01T04:16:27;54.35;;;24.67;;
18206;SDS011;9229;52.354;20.886;2023-04-01T04:21:35;49.47;;;22.02;;
18206;SDS011;9229;52.354;20.886;2023-04-01T04:26:39;43.53;;;21.60;;
18206;SDS011;9229;52.354;20.886;2023-04-01T04:31:44;36.92;;;20.15;;
18206;SDS011;9229;52.354;20.886;2023-04-01T04:36:46;37.67;;;20.13;;
18206;SDS011;9229;52.354;20.886;2023-04-01T04:41:50;41.70;;;19.42;;
18206;SDS011;9229;52.354;20.886;2023-04-01T04:46:52;32.53;;;18.45;;
18206;SDS011;9229;52.354;20.886;2023-04-01T04:51:55;32.30;;;16.30;;
18206;SDS011;9229;52.354;20.886;2023-04-01T04:57:02;33.13;;;16.80;;
18206;SDS011;9229;52.354;20.886;2023-04-01T05:02:10;33.58;;;16.85;;
18206;SDS011;9229;52.354;20.886;2023-04-01T05:07:12;34.15;;;16.65;;
18206;SDS011;9229;52.354;20.886;2023-04-01T05:12:17;27.98;;;14.55;;
18206;SDS011;9229;52.354;20.886;2023-04-01T05:17:32;25.80;;;15.48;;
18206;SDS011;9229;52.354;20.886;2023-04-01T05:22:43;25.00;;;14.25;;
18206;SDS011;9229;52.354;20.886;2023-04-01T05:27:47;29.13;;;15.90;;
18206;SDS011;9229;52.354;20.886;2023-04-01T05:32:50;25.63;;;13.90;;
18206;SDS011;9229;52.354;20.886;2023-04-01T05:37:52;24.92;;;14.63;;
18206;SDS011;9229;52.354;20.886;2023-04-01T05:42:57;22.90;;;14.48;;
18206;SDS011;9229;52.354;20.886;2023-04-01T05:48:05;25.83;;;14.40;;
18206;SDS011;9229;52.354;20.886;2023-04-01T05:53:12;19.27;;;12.25;;
18206;SDS011;9229;52.354;20.886;2023-04-01T05:58:18;21.10;;;12.65;;
18206;SDS011;9229;52.354;20.886;2023-04-01T06:03:21;17.80;;;11.10;;
18206;SDS011;9229;52.354;20.886;2023-04-01T06:08:23;16.50;;;11.20;;
18206;SDS011;9229;52.354;20.886;2023-04-01T06:13:35;16.40;;;10.57;;
18206;SDS011;9229;52.354;20.886;2023-04-01T06:18:52;16.30;;;9.98;;
18206;SDS011;9229;52.354;20.886;2023-04-01T06:24:11;12.80;;;9.13;;
18206;SDS011;9229;52.354;20.886;2023-04-01T06:29:35;13.05;;;9.85;;
18206;SDS011;9229;52.354;20.886;2023-04-01T06:34:58;10.55;;;8.68;;
18206;SDS011;9229;52.354;20.886;2023-04-01T06:40:36;9.57;;;7.97;;
18206;SDS011;9229;52.354;20.886;2023-04-01T06:45:50;9.45;;;8.00;;
18206;SDS011;9229;52.354;20.886;2023-04-01T06:51:21;9.35;;;7.22;;
18206;SDS011;9229;52.354;20.886;2023-04-01T06:56:49;7.20;;;6.50;;
18206;SDS011;9229;52.354;20.886;2023-04-01T07:02:01;6.35;;;5.75;;
18206;SDS011;9229;52.354;20.886;2023-04-01T07:07:14;6.95;;;5.50;;
18206;SDS011;9229;52.354;20.886;2023-04-01T07:12:36;5.00;;;4.50;;
18206;SDS011;9229;52.354;20.886;2023-04-01T07:18:09;4.80;;;4.30;;
18206;SDS011;9229;52.354;20.886;2023-04-01T07:23:16;4.45;;;4.22;;
18206;SDS011;9229;52.354;20.886;2023-04-01T07:28:39;4.47;;;4.18;;
18206;SDS011;9229;52.354;20.886;2023-04-01T07:34:16;4.40;;;3.95;;
18206;SDS011;9229;52.354;20.886;2023-04-01T07:39:38;4.00;;;3.70;;
18206;SDS011;9229;52.354;20.886;2023-04-01T07:45:09;4.63;;;4.10;;
18206;SDS011;9229;52.354;20.886;2023-04-01T07:50:22;4.30;;;4.00;;
18206;SDS011;9229;52.354;20.886;2023-04-01T07:55:38;5.55;;;4.65;;
18206;SDS011;9229;52.354;20.886;2023-04-01T08:00:46;6.20;;;5.60;;
18206;SDS011;9229;52.354;20.886;2023-04-01T08:06:02;7.78;;;6.90;;
18206;SDS011;9229;52.354;20.886;2023-04-01T08:11:12;7.55;;;5.90;;
18206;SDS011;9229;52.354;20.886;2023-04-01T08:28:03;7.57;;;6.78;;
18206;SDS011;9229;52.354;20.886;2023-04-01T08:33:14;7.40;;;6.57;;
18206;SDS011;9229;52.354;20.886;2023-04-01T08:38:27;8.10;;;7.07;;
18206;SDS011;9229;52.354;20.886;2023-04-01T08:43:39;13.93;;;8.60;;
18206;SDS011;9229;52.354;20.886;2023-04-01T08:49:04;8.93;;;7.18;;
18206;SDS011;9229;52.354;20.886;2023-04-01T08:54:22;11.32;;;9.20;;
18206;SDS011;9229;52.354;20.886;2023-04-01T09:05:39;11.88;;;8.20;;
18206;SDS011;9229;52.354;20.886;2023-04-01T09:11:10;9.07;;;7.80;;
18206;SDS011;9229;52.354;20.886;2023-04-01T09:16:35;9.43;;;7.60;;
18206;SDS011;9229;52.354;20.886;2023-04-01T09:22:06;9.88;;;6.93;;
18206;SDS011;9229;52.354;20.886;2023-04-01T09:27:25;6.85;;;6.22;;
18206;SDS011;9229;52.354;20.886;2023-04-01T09:32:45;6.07;;;5.57;;
18206;SDS011;9229;52.354;20.886;2023-04-01T09:43:48;6.10;;;5.53;;
18206;SDS011;9229;52.354;20.886;2023-04-01T10:00:34;3.72;;;3.53;;
18206;SDS011;9229;52.354;20.886;2023-04-01T10:18:03;3.25;;;3.05;;
18206;SDS011;9229;52.354;20.886;2023-04-01T10:23:35;3.35;;;3.05;;
18206;SDS011;9229;52.354;20.886;2023-04-01T10:29:10;2.97;;;2.78;;
18206;SDS011;9229;52.354;20.886;2023-04-01T10:34:55;3.58;;;3.38;;
18206;SDS011;9229;52.354;20.886;2023-04-01T10:40:33;3.05;;;2.85;;
18206;SDS011;9229;52.354;20.886;2023-04-01T10:45:57;4.03;;;3.50;;
18206;SDS011;9229;52.354;20.886;2023-04-01T10:57:28;5.10;;;4.63;;
18206;SDS011;9229;52.354;20.886;2023-04-01T11:03:26;4.75;;;4.35;;
18206;SDS011;9229;52.354;20.886;2023-04-01T11:15:08;3.80;;;3.50;;
18206;SDS011;9229;52.354;20.886;2023-04-01T11:20:45;4.28;;;3.97;;
18206;SDS011;9229;52.354;20.886;2023-04-01T11:26:17;2.78;;;2.58;;
18206;SDS011;9229;52.354;20.886;2023-04-01T11:31:55;2.30;;;2.20;;
18206;SDS011;9229;52.354;20.886;2023-04-01T11:37:08;3.42;;;2.40;;
18206;SDS011;9229;52.354;20.886;2023-04-01T11:43:20;2.05;;;1.95;;
18206;SDS011;9229;52.354;20.886;2023-04-01T11:48:54;2.47;;;2.38;;
18206;SDS011;9229;52.354;20.886;2023-04-01T11:54:10;4.55;;;2.63;;
18206;SDS011;9229;52.354;20.886;2023-04-01T12:05:20;2.60;;;2.50;;
18206;SDS011;9229;52.354;20.886;2023-04-01T12:10:33;3.03;;;2.60;;
18206;SDS011;9229;52.354;20.886;2023-04-01T12:15:44;2.72;;;2.53;;
18206;SDS011;9229;52.354;20.886;2023-04-01T12:21:02;2.83;;;2.63;;
18206;SDS011;9229;52.354;20.886;2023-04-01T12:26:26;3.90;;;3.60;;
18206;SDS011;9229;52.354;20.886;2023-04-01T12:32:02;3.58;;;3.38;;
18206;SDS011;9229;52.354;20.886;2023-04-01T12:37:24;4.13;;;3.72;;
18206;SDS011;9229;52.354;20.886;2023-04-01T12:42:50;3.92;;;3.17;;
18206;SDS011;9229;52.354;20.886;2023-04-01T12:54:02;1.92;;;1.83;;
18206;SDS011;9229;52.354;20.886;2023-04-01T12:59:28;1.98;;;1.98;;
18206;SDS011;9229;52.354;20.886;2023-04-01T13:05:06;1.70;;;1.70;;
18206;SDS011;9229;52.354;20.886;2023-04-01T13:29:02;2.97;;;2.83;;
18206;SDS011;9229;52.354;20.886;2023-04-01T13:34:28;3.30;;;3.10;;
18206;SDS011;9229;52.354;20.886;2023-04-01T13:40:19;3.92;;;3.65;;
18206;SDS011;9229;52.354;20.886;2023-04-01T13:46:26;4.20;;;3.90;;
18206;SDS011;9229;52.354;20.886;2023-04-01T13:58:33;3.47;;;3.25;;
18206;SDS011;9229;52.354;20.886;2023-04-01T14:14:54;4.03;;;3.70;;
18206;SDS011;9229;52.354;20.886;2023-04-01T14:20:27;3.72;;;3.53;;
18206;SDS011;9229;52.354;20.886;2023-04-01T14:25:59;3.97;;;3.67;;
18206;SDS011;9229;52.354;20.886;2023-04-01T14:44:09;3.78;;;3.53;;
18206;SDS011;9229;52.354;20.886;2023-04-01T14:49:30;4.70;;;4.30;;
18206;SDS011;9229;52.354;20.886;2023-04-01T14:54:39;4.68;;;4.35;;
18206;SDS011;9229;52.354;20.886;2023-04-01T15:00:01;4.47;;;4.18;;
18206;SDS011;9229;52.354;20.886;2023-04-01T15:31:00;7.40;;;4.28;;
18206;SDS011;9229;52.354;20.886;2023-04-01T15:36:32;4.47;;;4.10;;
18206;SDS011;9229;52.354;20.886;2023-04-01T15:48:46;5.32;;;4.75;;
18206;SDS011;9229;52.354;20.886;2023-04-01T16:00:29;4.70;;;4.30;;
18206;SDS011;9229;52.354;20.886;2023-04-01T16:06:13;3.80;;;3.50;;
18206;SDS011;9229;52.354;20.886;2023-04-01T16:11:45;3.80;;;3.50;;
18206;SDS011;9229;52.354;20.886;2023-04-01T16:17:02;3.30;;;3.10;;
18206;SDS011;9229;52.354;20.886;2023-04-01T16:22:22;3.75;;;3.47;;
18206;SDS011;9229;52.354;20.886;2023-04-01T16:27:33;5.18;;;4.00;;
18206;SDS011;9229;52.354;20.886;2023-04-01T16:32:54;4.72;;;4.22;;
18206;SDS011;9229;52.354;20.886;2023-04-01T16:38:09;7.68;;;4.90;;
18206;SDS011;9229;52.354;20.886;2023-04-01T16:43:25;6.50;;;4.75;;
18206;SDS011;9229;52.354;20.886;2023-04-01T16:48:34;5.35;;;4.90;;
18206;SDS011;9229;52.354;20.886;2023-04-01T16:54:02;5.10;;;4.60;;
18206;SDS011;9229;52.354;20.886;2023-04-01T16:59:15;4.72;;;4.32;;
18206;SDS011;9229;52.354;20.886;2023-04-01T17:04:25;6.15;;;4.55;;
18206;SDS011;9229;52.354;20.886;2023-04-01T17:09:48;5.57;;;5.07;;
18206;SDS011;9229;52.354;20.886;2023-04-01T17:15:15;5.75;;;5.20;;
18206;SDS011;9229;52.354;20.886;2023-04-01T17:20:35;7.22;;;5.38;;
18206;SDS011;9229;52.354;20.886;2023-04-01T17:31:21;7.28;;;5.72;;
18206;SDS011;9229;52.354;20.886;2023-04-01T17:36:41;9.07;;;6.13;;
18206;SDS011;9229;52.354;20.886;2023-04-01T17:41:59;8.10;;;6.00;;
18206;SDS011;9229;52.354;20.886;2023-04-01T17:47:18;6.20;;;5.60;;
18206;SDS011;9229;52.354;20.886;2023-04-01T17:52:44;8.55;;;6.35;;
18206;SDS011;9229;52.354;20.886;2023-04-01T17:57:51;9.40;;;6.82;;
18206;SDS011;9229;52.354;20.886;2023-04-01T18:03:05;9.82;;;6.93;;
18206;SDS011;9229;52.354;20.886;2023-04-01T18:08:25;8.93;;;6.82;;
18206;SDS011;9229;52.354;20.886;2023-04-01T18:19:06;9.23;;;6.45;;
18206;SDS011;9229;52.354;20.886;2023-04-01T18:24:19;7.95;;;6.47;;
18206;SDS011;9229;52.354;20.886;2023-04-01T18:29:31;9.60;;;7.10;;
18206;SDS011;9229;52.354;20.886;2023-04-01T18:34:42;8.80;;;6.90;;
18206;SDS011;9229;52.354;20.886;2023-04-01T18:39:56;12.80;;;7.32;;
18206;SDS011;9229;52.354;20.886;2023-04-01T18:45:14;8.05;;;6.45;;
18206;SDS011;9229;52.354;20.886;2023-04-01T18:50:23;9.73;;;7.63;;
18206;SDS011;9229;52.354;20.886;2023-04-01T18:55:29;11.07;;;7.40;;
18206;SDS011;9229;52.354;20.886;2023-04-01T19:00:38;10.18;;;6.95;;
18206;SDS011;9229;52.354;20.886;2023-04-01T19:05:46;8.57;;;6.70;;
18206;SDS011;9229;52.354;20.886;2023-04-01T19:10:53;9.13;;;6.93;;
18206;SDS011;9229;52.354;20.886;2023-04-01T19:16:06;9.05;;;7.82;;
18206;SDS011;9229;52.354;20.886;2023-04-01T19:21:16;15.23;;;6.40;;
18206;SDS011;9229;52.354;20.886;2023-04-01T19:26:25;7.93;;;6.57;;
18206;SDS011;9229;52.354;20.886;2023-04-01T19:31:36;9.65;;;6.15;;
18206;SDS011;9229;52.354;20.886;2023-04-01T19:36:47;6.90;;;5.95;;
18206;SDS011;9229;52.354;20.886;2023-04-01T19:42:02;8.27;;;7.00;;
18206;SDS011;9229;52.354;20.886;2023-04-01T19:47:41;9.77;;;7.10;;
18206;SDS011;9229;52.354;20.886;2023-04-01T19:52:56;8.77;;;6.35;;
18206;SDS011;9229;52.354;20.886;2023-04-01T19:58:03;8.52;;;7.25;;
18206;SDS011;9229;52.354;20.886;2023-04-01T20:03:25;7.05;;;6.35;;
18206;SDS011;9229;52.354;20.886;2023-04-01T20:08:49;6.63;;;6.03;;
18206;SDS011;9229;52.354;20.886;2023-04-01T20:19:44;7.65;;;5.55;;
18206;SDS011;9229;52.354;20.886;2023-04-01T20:37:20;6.28;;;5.65;;
18206;SDS011;9229;52.354;20.886;2023-04-01T20:43:20;5.50;;;5.00;;
18206;SDS011;9229;52.354;20.886;2023-04-01T20:49:07;6.65;;;4.95;;
18206;SDS011;9229;52.354;20.886;2023-04-01T20:54:53;7.20;;;5.55;;
18206;SDS011;9229;52.354;20.886;2023-04-01T21:05:53;5.78;;;5.15;;
18206;SDS011;9229;52.354;20.886;2023-04-01T21:11:32;8.95;;;5.47;;
18206;SDS011;9229;52.354;20.886;2023-04-01T21:17:21;8.98;;;5.68;;
18206;SDS011;9229;52.354;20.886;2023-04-01T21:23:11;9.15;;;5.68;;
18206;SDS011;9229;52.354;20.886;2023-04-01T21:28:33;7.60;;;5.85;;
18206;SDS011;9229;52.354;20.886;2023-04-01T21:58:24;6.00;;;5.47;;
18206;SDS011;9229;52.354;20.886;2023-04-01T22:03:55;6.57;;;5.07;;
18206;SDS011;9229;52.354;20.886;2023-04-01T22:09:18;6.38;;;5.25;;
18206;SDS011;9229;52.354;20.886;2023-04-01T22:14:36;7.38;;;5.85;;
18206;SDS011;9229;52.354;20.886;2023-04-01T22:26:27;7.18;;;5.55;;
18206;SDS011;9229;52.354;20.886;2023-04-01T22:31:53;5.18;;;4.70;;
18206;SDS011;9229;52.354;20.886;2023-04-01T22:42:46;4.90;;;4.50;;
18206;SDS011;9229;52.354;20.886;2023-04-01T22:48:26;5.82;;;4.80;;
18206;SDS011;9229;52.354;20.886;2023-04-01T22:54:36;5.68;;;5.03;;
18206;SDS011;9229;52.354;20.886;2023-04-01T23:00:16;11.85;;;5.07;;
18206;SDS011;9229;52.354;20.886;2023-04-01T23:05:56;7.80;;;5.30;;
18206;SDS011;9229;52.354;20.886;2023-04-01T23:11:28;5.43;;;4.93;;
18206;SDS011;9229;52.354;20.886;2023-04-01T23:17:01;5.40;;;4.60;;
18206;SDS011;9229;52.354;20.886;2023-04-01T23:22:57;9.23;;;5.53;;
18206;SDS011;9229;52.354;20.886;2023-04-01T23:28:51;6.78;;;5.05;;
18206;SDS011;9229;52.354;20.886;2023-04-01T23:34:21;7.90;;;5.47;;
18206;SDS011;9229;52.354;20.886;2023-04-01T23:40:17;5.63;;;4.82;;
18206;SDS011;9229;52.354;20.886;2023-04-01T23:51:49;10.95;;;6.60;;
18206;SDS011;9229;52.354;20.886;2023-04-01T23:57:09;7.53;;;5.90;;
